createdAt,value
2023-04-10T00:02:17.185Z,100538.56
2023-04-10T00:04:46.028Z,100536.59
2023-04-10T00:07:15.742Z,100535.41
2023-04-10T00:09:44.067Z,100537.75
2023-04-10T00:12:12.438Z,100534.47
2023-04-10T00:14:40.885Z,100534.09
2023-04-10T00:17:09.190Z,100526.09
2023-04-10T00:19:37.504Z,100517.56
2023-04-10T00:22:06.175Z,100530.69
2023-04-10T00:24:36.005Z,100524.75
2023-04-10T00:27:04.713Z,100518.84
2023-04-10T00:29:33.190Z,100518.41
2023-04-10T00:32:02.591Z,100512.47
2023-04-10T00:34:31.248Z,100514.41
2023-04-10T00:37:00.624Z,100516.34
2023-04-10T00:39:29.454Z,100515.81
2023-04-10T00:41:59.681Z,100520.81
2023-04-10T00:44:28.221Z,100507.78
2023-04-10T00:46:56.437Z,100507.25
2023-04-10T00:49:24.664Z,100502.50
2023-04-10T00:51:53.469Z,100504.22
2023-04-10T00:54:21.996Z,100487.16
2023-04-10T00:56:51.140Z,100491.38
2023-04-10T00:59:21.146Z,100483.81
2023-04-10T01:01:49.434Z,100475.47
2023-04-10T01:04:18.116Z,100465.94
2023-04-10T01:07:00.633Z,100470.25
2023-04-10T01:09:42.389Z,100465.13
2023-04-10T01:12:32.658Z,100457.03
2023-04-10T01:15:10.666Z,100457.38
2023-04-10T01:17:47.926Z,100462.75
2023-04-10T01:20:23.553Z,100455.56
2023-04-10T01:23:43.123Z,100446.47
2023-04-10T01:26:13.854Z,100440.44
2023-04-10T01:29:05.517Z,100435.22
2023-04-10T01:31:42.794Z,100442.22
2023-04-10T01:34:18.283Z,100443.94
2023-04-10T01:36:52.654Z,100433.94
2023-04-10T01:39:23.741Z,100424.28
2023-04-10T01:41:55.093Z,100427.19
2023-04-10T01:44:35.468Z,100423.38
2023-04-10T01:47:06.332Z,100429.16
2023-04-10T01:49:35.582Z,100428.34
2023-04-10T01:52:06.901Z,100427.72
2023-04-10T01:54:36.561Z,100431.97
2023-04-10T01:57:06.484Z,100430.41
2023-04-10T01:59:44.156Z,100430.94
2023-04-10T02:02:12.727Z,100426.63
2023-04-10T02:04:41.209Z,100424.63
2023-04-10T02:07:14.846Z,100421.34
2023-04-10T02:09:52.660Z,100423.00
2023-04-10T02:12:29.857Z,100423.75
2023-04-10T02:15:03.547Z,100415.31
2023-04-10T02:17:32.647Z,100424.13
2023-04-10T02:20:01.605Z,100423.09
2023-04-10T02:22:30.033Z,100426.16
2023-04-10T02:25:00.459Z,100421.22
2023-04-10T02:27:30.520Z,100421.00
2023-04-10T02:30:03.214Z,100420.47
2023-04-10T02:32:35.765Z,100416.00
2023-04-10T02:35:04.428Z,100418.72
2023-04-10T02:37:33.239Z,100421.47
2023-04-10T02:40:03.266Z,100413.06
2023-04-10T02:42:39.812Z,100417.91
2023-04-10T02:45:11.036Z,100414.25
2023-04-10T02:47:44.023Z,100409.50
2023-04-10T02:50:12.929Z,100405.72
2023-04-10T02:52:44.684Z,100401.84
2023-04-10T02:55:12.941Z,100404.53
2023-04-10T02:57:42.759Z,100399.22
2023-04-10T03:00:14.443Z,100394.03
2023-04-10T03:03:12.019Z,100391.31
2023-04-10T03:05:49.273Z,100392.00
2023-04-10T03:08:21.052Z,100381.63
2023-04-10T03:10:49.632Z,100386.91
2023-04-10T03:13:18.251Z,100386.00
2023-04-10T03:15:48.148Z,100386.59
2023-04-10T03:18:16.425Z,100384.69
2023-04-10T03:20:47.140Z,100376.06
2023-04-10T03:23:15.724Z,100372.16
2023-04-10T03:25:44.240Z,100363.91
2023-04-10T03:28:12.889Z,100362.59
2023-04-10T03:30:41.356Z,100358.84
2023-04-10T03:33:11.966Z,100354.81
2023-04-10T03:35:40.250Z,100357.78
2023-04-10T03:38:08.931Z,100357.53
2023-04-10T03:40:37.736Z,100355.03
2023-04-10T03:43:08.148Z,100352.59
2023-04-10T03:45:36.851Z,100353.28
2023-04-10T03:48:05.393Z,100339.34
2023-04-10T03:50:43.530Z,100347.13
2023-04-10T03:53:11.710Z,100346.19
2023-04-10T03:55:41.033Z,100353.72
2023-04-10T03:58:09.342Z,100352.34
2023-04-10T04:00:39.103Z,100342.88
2023-04-10T04:03:19.085Z,100343.22
2023-04-10T04:06:24.057Z,100336.81
2023-04-10T04:09:25.216Z,100333.69
2023-04-10T04:12:13.646Z,100328.03
2023-04-10T04:14:43.130Z,100336.00
2023-04-10T04:17:25.133Z,100325.88
2023-04-10T04:20:16.055Z,100334.44
2023-04-10T04:23:02.633Z,100323.06
2023-04-10T04:25:52.627Z,100321.59
2023-04-10T04:28:20.964Z,100320.00
2023-04-10T04:31:08.300Z,100329.72
2023-04-10T04:33:52.132Z,100325.97
2023-04-10T04:36:46.831Z,100320.72
2023-04-10T04:39:27.434Z,100336.81
2023-04-10T04:42:07.577Z,100333.84
2023-04-10T04:44:35.673Z,100330.19
2023-04-10T04:47:24.287Z,100335.28
2023-04-10T04:50:09.456Z,100334.81
2023-04-10T04:52:56.375Z,100333.00
2023-04-10T04:55:46.185Z,100326.59
2023-04-10T04:58:26.391Z,100326.28
2023-04-10T05:01:32.854Z,100324.91
2023-04-10T05:04:20.610Z,100326.47
2023-04-10T05:07:18.551Z,100324.06
2023-04-10T05:10:00.579Z,100323.50
2023-04-10T05:12:48.881Z,100325.03
2023-04-10T05:15:25.007Z,100321.78
2023-04-10T05:18:08.284Z,100324.13
2023-04-10T05:20:56.787Z,100313.06
2023-04-10T05:24:01.888Z,100327.25
2023-04-10T05:26:48.697Z,100333.13
2023-04-10T05:29:34.381Z,100324.44
2023-04-10T05:32:28.812Z,100334.34
2023-04-10T05:35:03.990Z,100346.19
2023-04-10T05:37:42.037Z,100334.03
2023-04-10T05:40:32.921Z,100328.19
2023-04-10T05:43:30.440Z,100327.50
2023-04-10T05:46:18.476Z,100331.66
2023-04-10T05:49:05.681Z,100326.19
2023-04-10T05:51:39.989Z,100325.41
2023-04-10T05:54:26.771Z,100320.44
2023-04-10T05:57:09.561Z,100323.97
2023-04-10T06:00:18.202Z,100303.91
2023-04-10T06:03:06.718Z,100298.34
2023-04-10T06:05:41.419Z,100298.00
2023-04-10T06:08:09.760Z,100295.31
2023-04-10T06:10:37.963Z,100301.25
2023-04-10T06:13:07.204Z,100292.56
2023-04-10T06:15:37.068Z,100297.13
2023-04-10T06:18:06.952Z,100301.66
2023-04-10T06:20:35.217Z,100295.44
2023-04-10T06:23:07.183Z,100296.22
2023-04-10T06:25:35.804Z,100292.84
2023-04-10T06:28:03.999Z,100295.44
2023-04-10T06:30:34.571Z,100286.78
2023-04-10T06:33:03.305Z,100289.97
2023-04-10T06:35:35.832Z,100289.13
2023-04-10T06:38:05.190Z,100291.28
2023-04-10T06:40:36.442Z,100298.47
2023-04-10T06:43:04.629Z,100297.50
2023-04-10T06:45:38.570Z,100295.16
2023-04-10T06:48:07.576Z,100291.72
2023-04-10T06:50:37.114Z,100298.44
2023-04-10T06:53:05.296Z,100295.72
2023-04-10T06:55:33.547Z,100288.03
2023-04-10T07:00:31.498Z,100288.06
2023-04-10T07:02:59.827Z,100287.72
2023-04-10T07:05:28.271Z,100291.56
2023-04-10T07:07:57.782Z,100295.38
2023-04-10T07:10:26.191Z,100292.50
2023-04-10T07:12:54.609Z,100291.50
2023-04-10T07:15:22.781Z,100281.22
2023-04-10T07:17:51.039Z,100285.31
2023-04-10T07:20:19.482Z,100287.50
2023-04-10T07:22:47.679Z,100281.56
2023-04-10T07:25:18.352Z,100280.28
2023-04-10T07:27:46.611Z,100269.53
2023-04-10T07:30:15.129Z,100271.03
2023-04-10T07:32:43.630Z,100269.88
2023-04-10T07:35:11.998Z,100261.00
2023-04-10T07:37:40.772Z,100262.88
2023-04-10T07:40:11.198Z,100251.38
2023-04-10T07:42:40.702Z,100247.69
2023-04-10T07:45:10.950Z,100247.63
2023-04-10T07:47:39.187Z,100243.75
2023-04-10T07:50:10.457Z,100243.41
2023-04-10T07:52:38.730Z,100232.34
2023-04-10T07:55:07.957Z,100226.13
2023-04-10T07:57:37.246Z,100231.06
2023-04-10T08:00:08.715Z,100226.84
2023-04-10T08:02:44.373Z,100224.38
2023-04-10T08:05:12.811Z,100224.44
2023-04-10T08:07:41.069Z,100221.75
2023-04-10T08:10:10.637Z,100213.31
2023-04-10T08:12:38.847Z,100204.97
2023-04-10T08:15:10.036Z,100204.31
2023-04-10T08:17:38.407Z,100202.84
2023-04-10T08:20:08.712Z,100200.53
2023-04-10T08:22:36.860Z,100191.34
2023-04-10T08:25:06.258Z,100187.38
2023-04-10T08:27:34.523Z,100185.94
2023-04-10T08:30:02.711Z,100188.38
2023-04-10T08:32:32.330Z,100180.34
2023-04-10T08:35:00.673Z,100173.59
2023-04-10T08:37:28.963Z,100174.25
2023-04-10T08:39:57.167Z,100164.03
2023-04-10T08:42:25.827Z,100172.03
2023-04-10T08:44:54.199Z,100158.59
2023-04-10T08:47:25.019Z,100154.94
2023-04-10T08:49:58.147Z,100148.31
2023-04-10T08:52:31.117Z,100149.53
2023-04-10T08:55:03.655Z,100153.81
2023-04-10T08:57:31.949Z,100154.75
2023-04-10T09:02:48.580Z,100156.88
2023-04-10T09:05:18.545Z,100159.41
2023-04-10T09:07:46.715Z,100162.13
2023-04-10T09:10:14.854Z,100160.31
2023-04-10T09:12:47.029Z,100170.81
2023-04-10T09:15:16.669Z,100163.19
2023-04-10T09:18:05.938Z,100163.34
2023-04-10T09:20:35.986Z,100156.06
2023-04-10T09:23:21.977Z,100146.75
2023-04-10T09:25:51.242Z,100143.25
2023-04-10T09:28:19.632Z,100143.03
2023-04-10T09:30:47.949Z,100151.47
2023-04-10T09:33:28.483Z,100151.81
2023-04-10T09:36:00.987Z,100148.09
2023-04-10T09:38:29.113Z,100144.47
2023-04-10T09:41:09.051Z,100145.19
2023-04-10T09:43:38.918Z,100143.41
2023-04-10T09:46:07.954Z,100125.28
2023-04-10T09:48:36.268Z,100132.75
2023-04-10T09:51:06.254Z,100122.41
2023-04-10T09:53:50.821Z,100116.78
2023-04-10T09:56:19.779Z,100116.06
2023-04-10T09:58:48.653Z,100120.41
2023-04-10T10:01:17.742Z,100102.69
2023-04-10T10:03:46.653Z,100089.75
2023-04-10T10:06:16.881Z,100094.75
2023-04-10T10:08:46.179Z,100100.03
2023-04-10T10:11:19.102Z,100074.00
2023-04-10T10:13:53.810Z,100081.47
2023-04-10T10:16:28.174Z,100073.69
2023-04-10T10:19:02.393Z,100062.28
2023-04-10T10:21:34.004Z,100063.81
2023-04-10T10:24:04.014Z,100064.13
2023-04-10T10:26:34.901Z,100067.63
2023-04-10T10:29:06.857Z,100057.13
2023-04-10T10:31:37.185Z,100052.97
2023-04-10T10:34:08.967Z,100045.44
2023-04-10T10:36:41.546Z,100034.31
2023-04-10T10:39:34.242Z,100036.69
2023-04-10T10:42:12.242Z,100035.28
2023-04-10T10:44:49.784Z,100019.81
2023-04-10T10:47:21.571Z,100023.19
2023-04-10T10:49:55.436Z,100019.69
2023-04-10T10:52:46.858Z,100014.25
2023-04-10T10:55:37.606Z,100024.13
2023-04-10T10:58:07.813Z,100017.47
2023-04-10T11:01:16.255Z,100019.84
2023-04-10T11:03:45.815Z,100022.69
2023-04-10T11:06:17.046Z,100005.81
2023-04-10T11:08:48.554Z,99996.44
2023-04-10T11:11:19.962Z,99978.00
2023-04-10T11:14:19.921Z,100001.19
2023-04-10T11:16:49.289Z,99993.06
2023-04-10T11:19:23.573Z,99995.34
2023-04-10T11:22:08.268Z,99985.28
2023-04-10T11:25:02.327Z,99973.75
2023-04-10T11:27:52.852Z,99976.44
2023-04-10T11:30:29.054Z,99981.06
2023-04-10T11:32:57.470Z,99972.41
2023-04-10T11:35:27.202Z,99975.19
2023-04-10T11:38:10.900Z,99966.31
2023-04-10T11:41:02.450Z,99957.63
2023-04-10T11:43:31.194Z,99952.06
2023-04-10T11:46:05.630Z,99940.34
2023-04-10T11:48:37.303Z,99943.72
2023-04-10T11:51:10.850Z,99941.94
2023-04-10T11:53:39.864Z,99933.41
2023-04-10T11:56:18.373Z,99923.81
2023-04-10T11:58:46.737Z,99914.13
2023-04-10T12:01:15.543Z,99898.06
2023-04-10T12:03:46.111Z,99909.25
2023-04-10T12:06:16.589Z,99907.78
2023-04-10T12:08:49.226Z,99906.59
2023-04-10T12:11:22.416Z,99914.50
2023-04-10T12:13:54.027Z,99905.56
2023-04-10T12:16:22.689Z,99907.91
2023-04-10T12:18:52.562Z,99899.81
2023-04-10T12:21:21.857Z,99897.78
2023-04-10T12:23:50.123Z,99900.28
2023-04-10T12:26:20.540Z,99897.31
2023-04-10T12:28:54.656Z,99899.09
2023-04-10T12:31:29.289Z,99891.22
2023-04-10T12:33:58.462Z,99883.47
2023-04-10T12:36:29.751Z,99884.03
2023-04-10T12:38:59.261Z,99875.38
2023-04-10T12:41:31.450Z,99869.78
2023-04-10T12:44:11.487Z,99869.41
2023-04-10T12:46:40.581Z,99862.69
2023-04-10T12:49:13.753Z,99879.13
2023-04-10T12:51:47.381Z,99877.53
2023-04-10T12:54:33.202Z,99871.22
2023-04-10T12:57:04.456Z,99862.34
2023-04-10T12:59:33.662Z,99859.09
2023-04-10T13:02:01.951Z,99859.94
2023-04-10T13:04:32.778Z,99847.31
2023-04-10T13:07:01.082Z,99852.59
2023-04-10T13:09:29.236Z,99837.72
2023-04-10T13:11:57.810Z,99841.38
2023-04-10T13:14:27.464Z,99832.41
2023-04-10T13:16:55.570Z,99840.72
2023-04-10T13:19:23.724Z,99828.28
2023-04-10T13:21:51.960Z,99832.00
2023-04-10T13:24:20.208Z,99815.34
2023-04-10T13:26:48.762Z,99812.28
2023-04-10T13:29:16.880Z,99806.94
2023-04-10T13:31:46.327Z,99808.19
2023-04-10T13:34:14.544Z,99796.44
2023-04-10T13:36:42.790Z,99799.59
2023-04-10T13:39:11.094Z,99799.44
2023-04-10T13:41:41.260Z,99781.31
2023-04-10T13:44:09.401Z,99780.69
2023-04-10T13:46:37.792Z,99776.41
2023-04-10T13:49:07.334Z,99768.59
2023-04-10T13:51:35.571Z,99759.75
2023-04-10T13:54:04.817Z,99753.47
2023-04-10T13:56:33.139Z,99768.31
2023-04-10T13:59:01.319Z,99755.06
2023-04-10T14:01:29.587Z,99755.25
2023-04-10T14:03:57.927Z,99756.50
2023-04-10T14:06:28.181Z,99755.00
2023-04-10T14:08:56.702Z,99745.47
2023-04-10T14:11:24.991Z,99745.63
2023-04-10T14:13:53.328Z,99740.97
2023-04-10T14:16:21.597Z,99725.72
2023-04-10T14:18:49.932Z,99721.47
2023-04-10T14:21:20.497Z,99719.78
2023-04-10T14:23:50.325Z,99720.91
2023-04-10T14:26:18.562Z,99707.13
2023-04-10T14:28:46.747Z,99701.16
2023-04-10T14:31:14.883Z,99696.50
2023-04-10T14:33:43.060Z,99689.34
2023-04-10T14:36:11.611Z,99688.13
2023-04-10T14:38:39.846Z,99671.47
2023-04-10T14:41:09.962Z,99675.72
2023-04-10T14:43:43.089Z,99673.69
2023-04-10T14:46:12.552Z,99673.09
2023-04-10T14:48:40.890Z,99676.34
2023-04-10T14:51:12.955Z,99661.09
2023-04-10T14:53:41.144Z,99671.66
2023-04-10T14:56:15.677Z,99663.50
2023-04-10T14:58:44.673Z,99660.63
2023-04-10T15:01:13.653Z,99659.56
2023-04-10T15:03:48.103Z,99668.69
2023-04-10T15:06:16.681Z,99675.00
2023-04-10T15:08:44.978Z,99666.75
2023-04-10T15:11:14.779Z,99672.19
2023-04-10T15:13:45.803Z,99668.44
2023-04-10T15:16:14.210Z,99672.59
2023-04-10T15:18:42.690Z,99663.06
2023-04-10T15:21:11.131Z,99672.31
2023-04-10T15:23:39.519Z,99667.00
2023-04-10T15:26:15.052Z,99665.97
2023-04-10T15:28:47.852Z,99662.97
2023-04-10T15:31:16.889Z,99656.78
2023-04-10T15:33:48.273Z,99654.31
2023-04-10T15:36:19.991Z,99651.38
2023-04-10T15:38:51.384Z,99641.88
2023-04-10T15:41:21.311Z,99638.50
2023-04-10T15:43:50.360Z,99643.66
2023-04-10T15:46:19.324Z,99621.19
2023-04-10T15:48:47.668Z,99622.88
2023-04-10T15:51:16.156Z,99608.06
2023-04-10T15:53:44.468Z,99606.84
2023-04-10T15:56:15.851Z,99593.09
2023-04-10T15:58:45.454Z,99582.81
2023-04-10T16:01:16.651Z,99561.34
2023-04-10T16:03:45.392Z,99555.09
2023-04-10T16:06:13.933Z,99556.97
2023-04-10T16:08:42.196Z,99538.31
2023-04-10T16:11:10.648Z,99544.72
2023-04-10T16:13:41.717Z,99534.19
2023-04-10T16:16:16.957Z,99535.88
2023-04-10T16:18:46.398Z,99542.75
2023-04-10T16:21:15.259Z,99550.16
2023-04-10T16:23:49.341Z,99537.31
2023-04-10T16:26:18.468Z,99545.75
2023-04-10T16:28:46.960Z,99550.94
2023-04-10T16:31:16.575Z,99544.91
2023-04-10T16:33:57.301Z,99544.31
2023-04-10T16:36:27.011Z,99532.09
2023-04-10T16:38:58.112Z,99533.41
2023-04-10T16:41:26.482Z,99535.72
2023-04-10T16:44:07.385Z,99532.31
2023-04-10T16:46:39.822Z,99541.44
2023-04-10T16:49:14.551Z,99534.34
2023-04-10T16:51:44.934Z,99529.03
2023-04-10T16:54:16.631Z,99512.94
2023-04-10T16:56:55.518Z,99506.25
2023-04-10T16:59:30.508Z,99508.19
2023-04-10T17:02:00.841Z,99495.88
2023-04-10T17:04:41.456Z,99486.47
2023-04-10T17:07:14.038Z,99496.69
2023-04-10T17:09:53.838Z,99489.22
2023-04-10T17:12:22.403Z,99481.63
2023-04-10T17:14:56.609Z,99477.94
2023-04-10T17:17:28.723Z,99483.66
2023-04-10T17:20:01.592Z,99479.44
2023-04-10T17:22:30.076Z,99470.41
2023-04-10T17:25:01.103Z,99454.59
2023-04-10T17:27:29.585Z,99458.38
2023-04-10T17:30:00.605Z,99454.78
2023-04-10T17:32:54.066Z,99462.19
2023-04-10T17:35:22.521Z,99467.72
2023-04-10T17:37:54.575Z,99458.78
2023-04-10T17:40:25.081Z,99463.25
2023-04-10T17:42:53.561Z,99453.13
2023-04-10T17:45:22.039Z,99456.25
2023-04-10T17:47:51.703Z,99449.16
2023-04-10T17:50:20.386Z,99469.38
2023-04-10T17:52:48.620Z,99457.94
2023-04-10T17:55:20.815Z,99461.50
2023-04-10T17:57:49.936Z,99460.69
2023-04-10T18:00:22.798Z,99468.31
2023-04-10T18:02:57.866Z,99452.59
2023-04-10T18:05:26.717Z,99451.22
2023-04-10T18:07:54.914Z,99460.34
2023-04-10T18:10:51.864Z,99459.16
2023-04-10T18:13:34.600Z,99455.69
2023-04-10T18:16:43.510Z,99476.59
2023-04-10T18:19:29.751Z,99493.53
2023-04-10T18:22:14.626Z,99479.34
2023-04-10T18:24:52.567Z,99484.00
2023-04-10T18:27:24.976Z,99479.09
2023-04-10T18:32:44.658Z,99468.94
2023-04-10T18:35:20.861Z,99479.84
2023-04-10T18:38:09.600Z,99479.03
2023-04-10T18:41:08.432Z,99490.72
2023-04-10T18:43:40.882Z,99513.81
2023-04-10T18:49:50.205Z,99525.63
2023-04-10T18:52:58.509Z,99528.50
2023-04-10T18:56:37.697Z,99537.03
2023-04-10T19:00:12.385Z,99545.31
2023-04-10T19:02:55.643Z,99543.13
2023-04-10T19:05:29.620Z,99551.34
2023-04-10T19:08:29.709Z,99546.00
2023-04-10T19:11:20.415Z,99551.69
2023-04-10T19:14:10.516Z,99553.69
2023-04-10T19:16:57.437Z,99542.44
2023-04-10T19:19:39.209Z,99565.63
2023-04-10T19:22:16.243Z,99564.34
2023-04-10T19:25:17.256Z,99567.75
2023-04-10T19:27:52.185Z,99566.25
2023-04-10T19:30:26.175Z,99576.06
2023-04-10T19:32:57.002Z,99574.91
2023-04-10T19:35:32.904Z,99581.59
2023-04-10T19:38:08.537Z,99592.03
2023-04-10T19:40:52.296Z,99570.16
2023-04-10T19:43:27.815Z,99586.47
2023-04-10T19:46:06.427Z,99591.19
2023-04-10T19:49:01.506Z,99593.66
2023-04-10T19:51:39.881Z,99586.25
2023-04-10T19:54:11.274Z,99605.78
2023-04-10T19:56:50.445Z,99604.66
2023-04-10T19:59:18.913Z,99608.44
2023-04-10T20:01:47.351Z,99595.56
2023-04-10T20:04:16.110Z,99599.31
2023-04-10T20:06:44.596Z,99583.34
2023-04-10T20:09:12.983Z,99592.53
2023-04-10T20:11:42.553Z,99606.41
2023-04-10T20:14:11.584Z,99608.44
2023-04-10T20:16:40.964Z,99619.50
2023-04-10T20:19:09.244Z,99607.63
2023-04-10T20:21:37.775Z,99599.22
2023-04-10T20:24:06.372Z,99603.91
2023-04-10T20:26:34.601Z,99603.50
2023-04-10T20:29:04.316Z,99611.97
2023-04-10T20:31:34.140Z,99601.75
2023-04-10T20:34:03.009Z,99592.59
2023-04-10T20:36:32.289Z,99563.84
2023-04-10T20:39:00.586Z,99570.44
2023-04-10T20:41:28.934Z,99569.41
2023-04-10T20:43:58.398Z,99575.97
2023-04-10T20:46:27.992Z,99564.50
2023-04-10T20:48:59.103Z,99563.78
2023-04-10T20:51:28.558Z,99581.81
2023-04-10T20:53:56.717Z,99575.13
2023-04-10T20:56:32.886Z,99572.75
2023-04-10T20:59:04.895Z,99546.19
2023-04-10T21:01:35.626Z,99551.03
2023-04-10T21:04:04.094Z,99541.31
2023-04-10T21:06:34.049Z,99530.38
2023-04-10T21:09:02.288Z,99521.72
2023-04-10T21:11:30.505Z,99509.25
2023-04-10T21:13:59.107Z,99490.41
2023-04-10T21:16:27.450Z,99507.09
2023-04-10T21:18:56.992Z,99520.00
2023-04-10T21:21:25.814Z,99486.00
2023-04-10T21:23:54.597Z,99466.66
2023-04-10T21:26:27.372Z,99468.13
2023-04-10T21:28:55.807Z,99475.47
2023-04-10T21:31:24.290Z,99493.56
2023-04-10T21:33:52.474Z,99488.38
2023-04-10T21:36:22.048Z,99499.91
2023-04-10T21:38:50.493Z,99485.06
2023-04-10T21:41:21.240Z,99473.88
2023-04-10T21:43:49.876Z,99457.78
2023-04-10T21:46:18.326Z,99451.56
2023-04-10T21:48:46.690Z,99451.97
2023-04-10T21:51:16.262Z,99433.56
2023-04-10T21:53:45.844Z,99431.59
2023-04-10T21:56:14.281Z,99432.00
2023-04-10T21:58:42.539Z,99416.22
2023-04-10T22:01:11.041Z,99421.03
2023-04-10T22:03:39.582Z,99430.81
2023-04-10T22:06:08.800Z,99426.69
2023-04-10T22:08:38.172Z,99422.72
2023-04-10T22:11:08.684Z,99421.66
2023-04-10T22:13:36.935Z,99410.22
2023-04-10T22:16:06.126Z,99407.13
2023-04-10T22:18:34.332Z,99429.38
2023-04-10T22:21:02.560Z,99430.28
2023-04-10T22:23:30.780Z,99431.81
2023-04-10T22:26:00.802Z,99411.31
2023-04-10T22:28:30.371Z,99398.63
2023-04-10T22:30:58.658Z,99405.47
2023-04-10T22:33:27.059Z,99419.66
2023-04-10T22:35:55.264Z,99387.06
2023-04-10T22:38:23.496Z,99391.59
2023-04-10T22:40:51.637Z,99398.47
2023-04-10T22:43:19.940Z,99404.44
2023-04-10T22:45:49.702Z,99411.13
2023-04-10T22:48:18.274Z,99409.91
2023-04-10T22:50:46.756Z,99411.69
2023-04-10T22:53:15.056Z,99409.91
2023-04-10T22:55:43.224Z,99400.97
2023-04-10T22:58:11.796Z,99410.06
2023-04-10T23:00:40.181Z,99396.81
2023-04-10T23:03:09.968Z,99414.22
2023-04-10T23:05:38.360Z,99413.19
2023-04-10T23:08:06.733Z,99407.84
2023-04-10T23:10:34.940Z,99415.66
2023-04-10T23:13:03.130Z,99413.03
2023-04-10T23:15:31.467Z,99427.03
2023-04-10T23:17:59.658Z,99426.00
2023-04-10T23:20:29.463Z,99413.53
2023-04-10T23:22:57.825Z,99410.66
2023-04-10T23:25:26.428Z,99412.44
2023-04-10T23:27:55.362Z,99418.00
2023-04-10T23:30:23.618Z,99418.84
2023-04-10T23:32:51.809Z,99426.13
2023-04-10T23:35:20.099Z,99427.16
2023-04-10T23:37:51.611Z,99419.16
2023-04-10T23:40:20.588Z,99436.50
2023-04-10T23:42:48.724Z,99433.06
2023-04-10T23:45:16.907Z,99422.28
2023-04-10T23:47:45.186Z,99422.03
2023-04-10T23:50:13.337Z,99422.31
2023-04-10T23:52:41.523Z,99414.38
2023-04-10T23:55:11.388Z,99422.31
2023-04-10T23:57:39.630Z,99420.13
